createdAt,value
2022-10-03T00:02:46.657Z,99410.19
2022-10-03T00:05:29.852Z,99417.78
2022-10-03T00:08:09.332Z,99411.19
2022-10-03T00:11:03.872Z,99418.25
2022-10-03T00:13:49.075Z,99425.97
2022-10-03T00:16:39.692Z,99413.72
2022-10-03T00:19:24.622Z,99414.91
2022-10-03T00:22:33.981Z,99432.72
2022-10-03T00:25:38.701Z,99444.81
2022-10-03T00:28:20.798Z,99448.16
2022-10-03T00:31:07.372Z,99463.31
2022-10-03T00:33:49.436Z,99459.59
2022-10-03T00:36:50.429Z,99459.44
2022-10-03T00:39:38.224Z,99463.16
2022-10-03T00:42:42.111Z,99446.16
2022-10-03T00:45:55.529Z,99437.25
2022-10-03T00:48:28.157Z,99445.47
2022-10-03T00:51:12.377Z,99451.72
2022-10-03T00:54:08.503Z,99458.94
2022-10-03T00:56:43.710Z,99452.22
2022-10-03T00:59:19.255Z,99452.88
2022-10-03T01:01:48.601Z,99461.63
2022-10-03T01:04:38.954Z,99455.22
2022-10-03T01:07:43.269Z,99468.00
2022-10-03T01:10:22.841Z,99482.47
2022-10-03T01:13:03.745Z,99477.94
2022-10-03T01:15:51.791Z,99479.09
2022-10-03T01:18:55.176Z,99492.06
2022-10-03T01:21:42.695Z,99498.28
2022-10-03T01:24:52.534Z,99500.13
2022-10-03T01:27:31.713Z,99493.22
2022-10-03T01:30:23.278Z,99498.28
2022-10-03T01:33:18.554Z,99497.78
2022-10-03T01:36:02.457Z,99496.25
2022-10-03T01:38:36.536Z,99488.19
2022-10-03T01:41:28.644Z,99485.16
2022-10-03T01:44:02.138Z,99502.63
2022-10-03T01:46:40.189Z,99493.22
2022-10-03T01:49:15.981Z,99496.94
2022-10-03T01:52:15.605Z,99494.56
2022-10-03T01:55:04.915Z,99497.44
2022-10-03T01:57:49.221Z,99499.47
2022-10-03T02:00:20.208Z,99500.28
2022-10-03T02:03:16.572Z,99496.59
2022-10-03T02:05:53.533Z,99494.75
2022-10-03T02:08:35.288Z,99511.03
2022-10-03T02:11:11.034Z,99499.25
2022-10-03T02:13:59.387Z,99496.25
2022-10-03T02:16:45.537Z,99479.09
2022-10-03T02:19:29.833Z,99486.00
2022-10-03T02:22:00.491Z,99486.16
2022-10-03T02:24:44.157Z,99484.81
2022-10-03T02:27:42.666Z,99487.34
2022-10-03T02:30:15.284Z,99490.19
2022-10-03T02:33:09.000Z,99485.66
2022-10-03T02:35:44.530Z,99503.63
2022-10-03T02:38:34.284Z,99498.94
2022-10-03T02:41:25.077Z,99500.94
2022-10-03T02:44:22.371Z,99495.56
2022-10-03T02:47:46.597Z,99488.50
2022-10-03T02:51:00.727Z,99491.72
2022-10-03T02:53:52.144Z,99491.19
2022-10-03T02:56:45.141Z,99489.69
2022-10-03T02:59:44.706Z,99490.19
2022-10-03T03:02:44.495Z,99492.06
2022-10-03T03:05:58.616Z,99483.66
2022-10-03T03:08:57.026Z,99491.38
2022-10-03T03:11:59.172Z,99489.53
2022-10-03T03:14:40.957Z,99485.50
2022-10-03T03:17:08.877Z,99495.59
2022-10-03T03:19:41.372Z,99494.56
2022-10-03T03:22:25.233Z,99493.03
2022-10-03T03:25:11.560Z,99489.53
2022-10-03T03:27:44.294Z,99498.25
2022-10-03T03:30:16.062Z,99497.59
2022-10-03T03:33:07.575Z,99497.06
2022-10-03T03:35:59.288Z,99486.50
2022-10-03T03:38:31.937Z,99483.63
2022-10-03T03:41:23.112Z,99487.50
2022-10-03T03:44:06.581Z,99477.09
2022-10-03T03:47:01.267Z,99478.25
2022-10-03T03:49:30.684Z,99468.69
2022-10-03T03:52:03.208Z,99473.06
2022-10-03T03:54:56.548Z,99476.88
2022-10-03T03:57:45.185Z,99475.03
2022-10-03T04:00:29.564Z,99479.22
2022-10-03T04:03:30.755Z,99477.88
2022-10-03T04:06:17.603Z,99479.75
2022-10-03T04:09:12.215Z,99479.88
2022-10-03T04:11:54.301Z,99484.44
2022-10-03T04:14:36.880Z,99489.28
2022-10-03T04:17:40.771Z,99487.13
2022-10-03T04:20:16.656Z,99489.94
2022-10-03T04:22:58.460Z,99492.13
2022-10-03T04:25:37.386Z,99494.81
2022-10-03T04:28:34.134Z,99504.38
2022-10-03T04:31:06.649Z,99498.66
2022-10-03T04:34:15.038Z,99509.03
2022-10-03T04:37:12.593Z,99506.53
2022-10-03T04:39:50.700Z,99505.16
2022-10-03T04:42:46.889Z,99513.06
2022-10-03T04:45:53.817Z,99501.81
2022-10-03T04:48:38.819Z,99498.75
2022-10-03T04:51:16.767Z,99502.78
2022-10-03T04:54:02.853Z,99500.09
2022-10-03T04:57:02.281Z,99491.00
2022-10-03T05:00:04.746Z,99498.91
2022-10-03T05:02:36.883Z,99493.31
2022-10-03T05:05:25.861Z,99495.31
2022-10-03T05:08:12.421Z,99496.81
2022-10-03T05:10:50.803Z,99490.59
2022-10-03T05:13:48.485Z,99505.34
2022-10-03T05:16:15.199Z,99505.63
2022-10-03T05:18:52.446Z,99511.84
2022-10-03T05:21:33.960Z,99508.94
2022-10-03T05:24:23.232Z,99517.63
2022-10-03T05:27:23.162Z,99520.31
2022-10-03T05:30:07.269Z,99521.81
2022-10-03T05:32:49.955Z,99517.63
2022-10-03T05:35:41.374Z,99526.06
2022-10-03T05:38:34.093Z,99524.94
2022-10-03T05:41:21.569Z,99531.94
2022-10-03T05:44:16.045Z,99540.22
2022-10-03T05:46:59.209Z,99541.59
2022-10-03T05:49:42.592Z,99543.78
2022-10-03T05:52:19.946Z,99546.78
2022-10-03T05:55:18.720Z,99542.22
2022-10-03T05:57:54.741Z,99546.84
2022-10-03T06:00:30.237Z,99558.63
2022-10-03T06:03:27.177Z,99568.97
2022-10-03T06:06:20.705Z,99562.03
2022-10-03T06:08:54.248Z,99571.56
2022-10-03T06:11:35.965Z,99571.56
2022-10-03T06:14:34.967Z,99571.69
2022-10-03T06:17:29.050Z,99580.59
2022-10-03T06:20:33.248Z,99574.75
2022-10-03T06:23:36.872Z,99581.41
2022-10-03T06:26:44.879Z,99590.06
2022-10-03T06:29:52.076Z,99602.00
2022-10-03T06:32:45.937Z,99590.69
2022-10-03T06:35:44.460Z,99583.06
2022-10-03T06:38:53.683Z,99577.56
2022-10-03T06:41:57.304Z,99579.66
2022-10-03T06:44:57.606Z,99589.00
2022-10-03T06:47:52.544Z,99581.63
2022-10-03T06:50:48.621Z,99591.41
2022-10-03T06:53:50.404Z,99591.63
2022-10-03T06:56:44.188Z,99587.72
2022-10-03T06:59:32.628Z,99591.00
2022-10-03T07:02:17.849Z,99588.81
2022-10-03T07:05:22.139Z,99602.53
2022-10-03T07:08:19.540Z,99601.59
2022-10-03T07:11:19.203Z,99592.97
2022-10-03T07:14:08.126Z,99586.56
2022-10-03T07:16:50.212Z,99595.88
2022-10-03T07:20:04.781Z,99604.28
2022-10-03T07:23:06.336Z,99607.84
2022-10-03T07:26:06.425Z,99613.97
2022-10-03T07:29:04.876Z,99608.28
2022-10-03T07:32:04.796Z,99615.81
2022-10-03T07:35:10.603Z,99617.53
2022-10-03T07:38:05.244Z,99616.06
2022-10-03T07:40:49.671Z,99621.69
2022-10-03T07:43:56.266Z,99629.16
2022-10-03T07:46:50.852Z,99630.81
2022-10-03T07:49:41.469Z,99629.00
2022-10-03T07:52:40.544Z,99632.41
2022-10-03T07:55:38.060Z,99628.63
2022-10-03T07:58:31.387Z,99629.59
2022-10-03T08:01:33.762Z,99624.25
2022-10-03T08:04:34.138Z,99627.63
2022-10-03T08:07:41.426Z,99632.50
2022-10-03T08:10:31.831Z,99619.50
2022-10-03T08:13:23.222Z,99622.56
2022-10-03T08:16:15.980Z,99619.13
2022-10-03T08:19:13.918Z,99617.03
2022-10-03T08:21:55.602Z,99612.53
2022-10-03T08:27:23.734Z,99608.59
2022-10-03T08:30:15.070Z,99604.69
2022-10-03T08:33:24.005Z,99594.34
2022-10-03T08:36:34.950Z,99599.00
2022-10-03T08:39:34.536Z,99597.75
2022-10-03T08:42:30.914Z,99596.28
2022-10-03T08:45:19.233Z,99602.34
2022-10-03T08:48:13.737Z,99591.31
2022-10-03T08:50:48.106Z,99593.13
2022-10-03T08:53:37.013Z,99585.53
2022-10-03T08:56:10.501Z,99598.22
2022-10-03T08:58:43.491Z,99594.34
2022-10-03T09:01:17.165Z,99601.78
2022-10-03T09:03:56.209Z,99601.94
2022-10-03T09:07:18.629Z,99600.88
2022-10-03T09:10:02.449Z,99604.66
2022-10-03T09:13:18.284Z,99603.34
2022-10-03T09:16:06.294Z,99615.38
2022-10-03T09:18:35.661Z,99610.94
2022-10-03T09:21:37.495Z,99612.97
2022-10-03T09:24:34.674Z,99614.97
2022-10-03T09:27:35.937Z,99614.78
2022-10-03T09:30:12.140Z,99628.47
2022-10-03T09:33:00.139Z,99629.59
2022-10-03T09:35:38.690Z,99629.66
2022-10-03T09:38:11.998Z,99632.81
2022-10-03T09:41:20.103Z,99620.72
2022-10-03T09:44:08.275Z,99626.97
2022-10-03T09:47:09.864Z,99628.03
2022-10-03T09:49:51.621Z,99629.41
2022-10-03T09:53:04.653Z,99622.09
2022-10-03T09:55:43.559Z,99624.63
2022-10-03T09:58:31.695Z,99620.03
2022-10-03T10:01:10.750Z,99615.66
2022-10-03T10:04:08.425Z,99602.47
2022-10-03T10:06:57.829Z,99610.94
2022-10-03T10:09:40.575Z,99597.63
2022-10-03T10:12:25.925Z,99592.03
2022-10-03T10:15:03.998Z,99592.00
2022-10-03T10:18:22.164Z,99599.59
2022-10-03T10:20:48.658Z,99598.56
2022-10-03T10:23:38.051Z,99585.22
2022-10-03T10:26:16.896Z,99585.94
2022-10-03T10:29:02.311Z,99596.84
2022-10-03T10:31:38.026Z,99591.75
2022-10-03T10:34:24.833Z,99600.03
2022-10-03T10:37:32.620Z,99589.03
2022-10-03T10:40:37.647Z,99589.97
2022-10-03T10:43:41.382Z,99579.34
2022-10-03T10:46:42.350Z,99579.72
2022-10-03T10:49:26.818Z,99572.94
2022-10-03T10:52:12.627Z,99576.28
2022-10-03T10:54:45.031Z,99577.34
2022-10-03T10:57:25.628Z,99572.16
2022-10-03T11:00:15.200Z,99570.59
2022-10-03T11:02:47.984Z,99571.91
2022-10-03T11:06:19.273Z,99567.56
2022-10-03T11:09:22.849Z,99560.41
2022-10-03T11:12:19.105Z,99561.19
2022-10-03T11:14:54.576Z,99565.34
2022-10-03T11:17:55.132Z,99563.19
2022-10-03T11:21:04.458Z,99561.91
2022-10-03T11:24:06.691Z,99553.38
2022-10-03T11:26:44.493Z,99560.41
2022-10-03T11:29:42.561Z,99553.97
2022-10-03T11:32:45.579Z,99558.16
2022-10-03T11:35:43.311Z,99558.72
2022-10-03T11:38:19.237Z,99550.94
2022-10-03T11:41:22.845Z,99554.34
2022-10-03T11:44:09.090Z,99548.41
2022-10-03T11:46:47.838Z,99541.09
2022-10-03T11:49:33.841Z,99550.63
2022-10-03T11:52:22.536Z,99554.22
2022-10-03T11:54:59.793Z,99545.38
2022-10-03T11:57:36.990Z,99554.00
2022-10-03T12:00:15.241Z,99541.59
2022-10-03T12:03:01.005Z,99542.53
2022-10-03T12:05:46.337Z,99545.94
2022-10-03T12:08:48.245Z,99543.06
2022-10-03T12:11:27.681Z,99531.53
2022-10-03T12:14:18.895Z,99539.09
2022-10-03T12:17:12.189Z,99539.69
2022-10-03T12:20:03.197Z,99539.28
2022-10-03T12:22:48.077Z,99537.31
2022-10-03T12:25:25.656Z,99525.38
2022-10-03T12:27:58.458Z,99525.81
2022-10-03T12:30:28.371Z,99512.31
2022-10-03T12:33:04.027Z,99521.06
2022-10-03T12:35:41.442Z,99521.25
2022-10-03T12:38:25.573Z,99515.88
2022-10-03T12:41:10.621Z,99517.53
2022-10-03T12:43:53.554Z,99524.00
2022-10-03T12:46:55.793Z,99523.22
2022-10-03T12:49:48.714Z,99523.41
2022-10-03T12:52:44.132Z,99525.69
2022-10-03T12:55:28.204Z,99526.22
2022-10-03T12:58:14.738Z,99522.38
2022-10-03T13:01:21.035Z,99520.81
2022-10-03T13:04:09.566Z,99522.13
2022-10-03T13:07:12.730Z,99513.97
2022-10-03T13:09:57.592Z,99514.69
2022-10-03T13:12:40.842Z,99508.19
2022-10-03T13:15:38.642Z,99509.53
2022-10-03T13:18:36.582Z,99498.00
2022-10-03T13:21:44.053Z,99504.56
2022-10-03T13:24:39.840Z,99498.22
2022-10-03T13:27:36.004Z,99493.72
2022-10-03T13:30:25.400Z,99483.50
2022-10-03T13:32:56.689Z,99489.25
2022-10-03T13:35:58.067Z,99480.97
2022-10-03T13:38:47.129Z,99483.44
2022-10-03T13:41:25.223Z,99480.75
2022-10-03T13:43:56.396Z,99476.97
2022-10-03T13:46:32.054Z,99481.19
2022-10-03T13:49:02.850Z,99469.22
2022-10-03T13:51:45.824Z,99475.03
2022-10-03T13:54:34.836Z,99475.47
2022-10-03T13:57:16.331Z,99470.88
2022-10-03T14:00:12.225Z,99465.84
2022-10-03T14:03:01.900Z,99468.22
2022-10-03T14:05:57.402Z,99460.00
2022-10-03T14:08:33.762Z,99468.78
2022-10-03T14:11:42.361Z,99465.94
2022-10-03T14:14:21.485Z,99458.41
2022-10-03T14:17:01.700Z,99455.41
2022-10-03T14:19:45.263Z,99452.75
2022-10-03T14:22:47.854Z,99457.91
2022-10-03T14:26:00.223Z,99453.94
2022-10-03T14:28:43.627Z,99450.47
2022-10-03T14:31:43.890Z,99451.94
2022-10-03T14:34:28.693Z,99440.44
2022-10-03T14:37:14.101Z,99447.34
2022-10-03T14:40:12.329Z,99446.72
2022-10-03T14:42:48.380Z,99455.28
2022-10-03T14:45:18.693Z,99452.13
2022-10-03T14:47:53.811Z,99452.47
2022-10-03T14:50:29.411Z,99451.56
2022-10-03T14:53:06.246Z,99456.47
2022-10-03T14:55:43.285Z,99447.09
2022-10-03T14:58:38.353Z,99442.59
2022-10-03T15:01:19.301Z,99451.56
2022-10-03T15:04:10.143Z,99438.09
2022-10-03T15:06:54.049Z,99438.53
2022-10-03T15:09:42.376Z,99439.38
2022-10-03T15:12:18.103Z,99437.00
2022-10-03T15:14:56.494Z,99440.75
2022-10-03T15:17:27.491Z,99444.31
2022-10-03T15:19:57.140Z,99447.94
2022-10-03T15:22:29.414Z,99433.38
2022-10-03T15:25:21.415Z,99439.28
2022-10-03T15:27:54.242Z,99431.88
2022-10-03T15:30:31.399Z,99430.31
2022-10-03T15:33:10.525Z,99429.91
2022-10-03T15:35:41.916Z,99436.09
2022-10-03T15:38:14.136Z,99436.63
2022-10-03T15:40:54.461Z,99441.03
2022-10-03T15:43:31.372Z,99426.84
2022-10-03T15:46:01.468Z,99424.22
2022-10-03T15:48:30.557Z,99435.91
2022-10-03T15:50:58.602Z,99430.53
2022-10-03T15:53:36.557Z,99424.66
2022-10-03T15:56:19.620Z,99426.53
2022-10-03T15:59:01.453Z,99435.88
2022-10-03T16:01:41.193Z,99435.94
2022-10-03T16:04:14.211Z,99437.28
2022-10-03T16:06:50.551Z,99429.81
2022-10-03T16:09:31.111Z,99427.09
2022-10-03T16:12:05.153Z,99424.13
2022-10-03T16:14:43.120Z,99418.09
2022-10-03T16:17:44.259Z,99413.09
2022-10-03T16:20:24.001Z,99414.56
2022-10-03T16:22:59.713Z,99406.13
2022-10-03T16:25:39.244Z,99422.38
2022-10-03T16:28:14.890Z,99412.97
2022-10-03T16:30:54.022Z,99418.38
2022-10-03T16:33:32.224Z,99419.16
2022-10-03T16:36:09.357Z,99420.31
2022-10-03T16:38:40.534Z,99421.88
2022-10-03T16:41:10.371Z,99429.44
2022-10-03T16:43:37.391Z,99429.22
2022-10-03T16:46:21.180Z,99434.84
2022-10-03T16:49:06.915Z,99447.16
2022-10-03T16:51:55.494Z,99448.50
2022-10-03T16:54:23.364Z,99447.91
2022-10-03T16:57:02.084Z,99448.78
2022-10-03T16:59:30.896Z,99445.22
2022-10-03T17:02:04.585Z,99449.56
2022-10-03T17:04:40.146Z,99453.28
2022-10-03T17:07:16.085Z,99451.50
2022-10-03T17:09:49.417Z,99449.50
2022-10-03T17:12:28.427Z,99448.53
2022-10-03T17:15:01.113Z,99448.25
2022-10-03T17:18:00.213Z,99442.22
2022-10-03T17:21:07.746Z,99447.59
2022-10-03T17:23:39.616Z,99435.31
2022-10-03T17:26:25.944Z,99431.66
2022-10-03T17:29:03.675Z,99429.56
2022-10-03T17:31:41.245Z,99423.97
2022-10-03T17:34:17.126Z,99438.41
2022-10-03T17:37:02.032Z,99434.56
2022-10-03T17:39:46.737Z,99438.56
2022-10-03T17:42:28.699Z,99433.72
2022-10-03T17:45:19.507Z,99443.22
2022-10-03T17:47:55.520Z,99438.97
2022-10-03T17:50:30.447Z,99445.53
2022-10-03T17:53:00.108Z,99440.31
2022-10-03T17:55:32.007Z,99435.28
2022-10-03T17:58:17.061Z,99440.53
2022-10-03T18:00:46.489Z,99444.06
2022-10-03T18:03:15.790Z,99440.38
2022-10-03T18:05:47.042Z,99435.88
2022-10-03T18:08:18.965Z,99443.44
2022-10-03T18:11:00.905Z,99455.75
2022-10-03T18:13:43.307Z,99447.16
2022-10-03T18:16:22.100Z,99440.75
2022-10-03T18:19:07.380Z,99451.72
2022-10-03T18:21:50.090Z,99442.44
2022-10-03T18:24:38.444Z,99446.97
2022-10-03T18:27:25.703Z,99435.72
2022-10-03T18:30:32.243Z,99443.44
2022-10-03T18:33:01.471Z,99439.41
2022-10-03T18:35:31.297Z,99437.94
2022-10-03T18:38:26.997Z,99443.47
2022-10-03T18:40:57.377Z,99432.72
2022-10-03T18:43:37.383Z,99441.63
2022-10-03T18:46:16.959Z,99428.72
2022-10-03T18:49:32.507Z,99428.72
2022-10-03T18:52:25.006Z,99437.28
2022-10-03T18:54:51.565Z,99432.56
2022-10-03T18:57:20.980Z,99438.13
2022-10-03T18:59:51.913Z,99434.56
2022-10-03T19:02:25.438Z,99428.38
2022-10-03T19:05:09.651Z,99427.16
2022-10-03T19:07:44.632Z,99433.06
2022-10-03T19:10:24.992Z,99446.50
2022-10-03T19:13:01.979Z,99452.84
2022-10-03T19:15:51.390Z,99448.84
2022-10-03T19:18:28.685Z,99434.03
2022-10-03T19:21:01.461Z,99418.03
2022-10-03T19:23:37.378Z,99423.25
2022-10-03T19:26:18.683Z,99418.34
2022-10-03T19:28:49.935Z,99423.06
2022-10-03T19:31:30.647Z,99420.38
2022-10-03T19:34:02.737Z,99429.78
2022-10-03T19:36:32.893Z,99433.63
2022-10-03T19:39:00.827Z,99433.78
2022-10-03T19:41:33.616Z,99419.47
2022-10-03T19:44:10.062Z,99418.47
2022-10-03T19:46:53.661Z,99425.50
2022-10-03T19:49:33.384Z,99426.09
2022-10-03T19:52:11.930Z,99430.47
2022-10-03T19:54:48.324Z,99435.03
2022-10-03T19:57:22.674Z,99427.69
2022-10-03T19:59:54.800Z,99443.66
2022-10-03T20:02:23.880Z,99435.72
2022-10-03T20:04:53.191Z,99450.50
2022-10-03T20:07:33.809Z,99448.78
2022-10-03T20:10:41.858Z,99438.59
2022-10-03T20:13:10.615Z,99429.81
2022-10-03T20:15:50.299Z,99425.81
2022-10-03T20:18:23.393Z,99421.47
2022-10-03T20:20:58.165Z,99410.53
2022-10-03T20:23:27.206Z,99420.22
2022-10-03T20:26:12.396Z,99422.53
2022-10-03T20:28:53.298Z,99418.13
2022-10-03T20:31:23.758Z,99408.25
2022-10-03T20:33:53.546Z,99405.50
2022-10-03T20:36:22.928Z,99411.56
2022-10-03T20:39:07.764Z,99417.25
2022-10-03T20:41:55.409Z,99415.34
2022-10-03T20:44:30.242Z,99399.53
2022-10-03T20:47:19.628Z,99402.94
2022-10-03T20:49:53.308Z,99416.44
2022-10-03T20:52:24.323Z,99403.16
2022-10-03T20:55:06.734Z,99398.41
2022-10-03T20:57:50.681Z,99398.47
2022-10-03T21:00:21.920Z,99399.31
2022-10-03T21:03:06.949Z,99399.91
2022-10-03T21:05:46.280Z,99389.81
2022-10-03T21:08:36.528Z,99396.88
2022-10-03T21:11:28.437Z,99388.94
2022-10-03T21:13:59.247Z,99393.97
2022-10-03T21:16:34.055Z,99394.28
2022-10-03T21:19:14.275Z,99397.28
2022-10-03T21:21:47.466Z,99398.28
2022-10-03T21:24:24.324Z,99400.41
2022-10-03T21:27:01.351Z,99393.38
2022-10-03T21:29:31.119Z,99390.31
2022-10-03T21:32:15.506Z,99383.38
2022-10-03T21:35:07.719Z,99376.31
2022-10-03T21:37:49.244Z,99376.53
2022-10-03T21:40:31.391Z,99374.25
2022-10-03T21:43:19.548Z,99368.91
2022-10-03T21:45:52.170Z,99364.00
2022-10-03T21:48:21.441Z,99367.47
2022-10-03T21:50:58.731Z,99366.06
2022-10-03T21:53:52.149Z,99364.19
2022-10-03T21:56:28.780Z,99364.63
2022-10-03T21:59:01.817Z,99367.53
2022-10-03T22:01:39.087Z,99369.97
2022-10-03T22:04:24.126Z,99365.91
2022-10-03T22:07:15.443Z,99369.38
2022-10-03T22:09:55.363Z,99365.78
2022-10-03T22:12:23.308Z,99362.78
2022-10-03T22:15:02.129Z,99358.97
2022-10-03T22:17:54.613Z,99362.78
2022-10-03T22:20:24.488Z,99354.06
2022-10-03T22:23:04.805Z,99355.22
2022-10-03T22:25:51.148Z,99347.88
2022-10-03T22:28:45.745Z,99350.41
2022-10-03T22:31:38.607Z,99346.09
2022-10-03T22:34:43.869Z,99340.91
2022-10-03T22:37:12.208Z,99334.19
2022-10-03T22:39:39.134Z,99336.28
2022-10-03T22:42:06.699Z,99340.94
2022-10-03T22:44:38.104Z,99336.19
2022-10-03T22:47:14.042Z,99339.53
2022-10-03T22:49:45.083Z,99334.88
2022-10-03T22:52:24.313Z,99330.75
2022-10-03T22:54:52.111Z,99326.47
2022-10-03T22:57:19.077Z,99327.28
2022-10-03T23:00:13.212Z,99314.91
2022-10-03T23:02:54.941Z,99313.97
2022-10-03T23:05:55.095Z,99309.63
2022-10-03T23:08:33.841Z,99313.59
2022-10-03T23:11:08.240Z,99313.28
2022-10-03T23:13:39.027Z,99308.47
2022-10-03T23:16:30.445Z,99303.88
2022-10-03T23:19:10.469Z,99305.47
2022-10-03T23:21:48.904Z,99304.31
2022-10-03T23:24:35.853Z,99309.66
2022-10-03T23:27:36.470Z,99317.31
2022-10-03T23:30:11.625Z,99308.31
2022-10-03T23:32:47.123Z,99321.13
2022-10-03T23:35:39.286Z,99324.66
2022-10-03T23:38:31.760Z,99326.63
2022-10-03T23:41:02.972Z,99319.88
2022-10-03T23:43:47.848Z,99330.56
2022-10-03T23:46:19.616Z,99324.44
2022-10-03T23:48:50.272Z,99325.13
2022-10-03T23:51:22.114Z,99322.75
2022-10-03T23:53:51.564Z,99319.81
2022-10-03T23:56:21.198Z,99312.63
2022-10-03T23:59:02.588Z,99310.09
